South Arkansas Regional At Goodwin Field
KELD : rendu visible

Aérodrome :











RETROUVEZ-NOUS SUR...

 
LOGIN :

S'inscrire | Disclaimer

   EN    FR    IT 

 









Légende :    VFR   VFR Marginal   IFR   IFR Intensif   IFR Très Intensif
Visi : 
Plafond : 
>= 8 km
>= 3000ft
5 à 8 km
1000 à 3000 ft
1500m à 5 km
500 à 1000 ft
800 à 1500m
200 à 500 ft
< 800m
< 200 ft
Symboles :   Orages  Brouillard  Fortes neiges  Fortes précipitations  Vent > 20 kt






- Altitude de l'aérodrome : 277 ft
- Code IATA : ELD


KELD - South Arkansas Regional At Goodwin Field

DERNIER METAR :
  • 311653Z AUTO 08008KT 10SM CLR 28/15 A3019 RMK AO2 SLP220 T02780150

METARs EXPIRÉS :
  • 311553Z AUTO 04007KT 10SM CLR 26/14 A3019 RMK AO2 SLP220 T02610144
  • 311453Z AUTO 05010KT 10SM CLR 25/16 A3019 RMK AO2 SLP220 T02500156 50001

TAF KELD
Valide du 31 à 12h jusqu'au 01 à 12h UTC


311133Z 3112/0112 05003KT P6SM SKC
FM311800 04009KT P6SM FEW060 SCT250
FM010100 05003KT P6SM FEW250
FIR KZFW / Amérique du Nord



MET'MAP, la Météo Aéronautique d'un coup d'oeil ! - Copyright ORBIFLY Décembre 2007 - Disclaimer

ORBIFLY MET'MAP TEAM :

Programmation & Développement : Alexandra Zaïnal
Sur une idée originale de : Baudouin d'Aumeries
Assistance à la programmation : Marc-Olivier Méhu
Soutien technique & logistique : Manuel Goepfert

Contact : metmap@orbifly.com




SOURCES & CREDITS :

   NOAA       Earth
Advisory